sensor_id;sensor_type;location;lat;lon;timestamp;P1;durP1;ratioP1;P2;durP2;ratioP2
72299;SDS011;60234;52.414;13.334;2022-07-23T00:00:06;7.47;;;2.70;;
72299;SDS011;60234;52.414;13.334;2022-07-23T00:02:32;6.90;;;2.80;;
72299;SDS011;60234;52.414;13.334;2022-07-23T00:04:58;7.70;;;3.07;;
72299;SDS011;60234;52.414;13.334;2022-07-23T00:07:23;6.37;;;3.03;;
72299;SDS011;60234;52.414;13.334;2022-07-23T00:09:48;8.33;;;2.87;;
72299;SDS011;60234;52.414;13.334;2022-07-23T00:12:14;7.50;;;3.10;;
72299;SDS011;60234;52.414;13.334;2022-07-23T00:14:39;5.70;;;2.80;;
72299;SDS011;60234;52.414;13.334;2022-07-23T00:17:04;6.43;;;2.80;;
72299;SDS011;60234;52.414;13.334;2022-07-23T00:19:30;6.40;;;2.90;;
72299;SDS011;60234;52.414;13.334;2022-07-23T00:21:55;6.50;;;2.80;;
72299;SDS011;60234;52.414;13.334;2022-07-23T00:24:20;7.27;;;2.90;;
72299;SDS011;60234;52.414;13.334;2022-07-23T00:26:46;7.67;;;2.97;;
72299;SDS011;60234;52.414;13.334;2022-07-23T00:29:11;9.00;;;3.28;;
72299;SDS011;60234;52.414;13.334;2022-07-23T00:31:37;6.90;;;2.77;;
72299;SDS011;60234;52.414;13.334;2022-07-23T00:34:02;7.83;;;2.83;;
72299;SDS011;60234;52.414;13.334;2022-07-23T00:36:27;7.57;;;3.43;;
72299;SDS011;60234;52.414;13.334;2022-07-23T00:38:53;6.20;;;2.90;;
72299;SDS011;60234;52.414;13.334;2022-07-23T00:41:19;7.90;;;3.20;;
72299;SDS011;60234;52.414;13.334;2022-07-23T00:43:45;6.05;;;2.42;;
72299;SDS011;60234;52.414;13.334;2022-07-23T00:46:10;6.83;;;2.70;;
72299;SDS011;60234;52.414;13.334;2022-07-23T00:48:36;6.05;;;2.70;;
72299;SDS011;60234;52.414;13.334;2022-07-23T00:51:02;8.17;;;3.10;;
72299;SDS011;60234;52.414;13.334;2022-07-23T00:53:27;7.30;;;2.63;;
72299;SDS011;60234;52.414;13.334;2022-07-23T00:55:53;6.47;;;2.60;;
72299;SDS011;60234;52.414;13.334;2022-07-23T00:58:19;6.63;;;2.60;;
72299;SDS011;60234;52.414;13.334;2022-07-23T01:00:45;6.65;;;2.80;;
72299;SDS011;60234;52.414;13.334;2022-07-23T01:03:11;6.30;;;2.67;;
72299;SDS011;60234;52.414;13.334;2022-07-23T01:05:36;6.17;;;2.60;;
72299;SDS011;60234;52.414;13.334;2022-07-23T01:08:02;7.32;;;3.05;;
72299;SDS011;60234;52.414;13.334;2022-07-23T01:10:27;7.80;;;3.00;;
72299;SDS011;60234;52.414;13.334;2022-07-23T01:12:56;6.07;;;2.50;;
72299;SDS011;60234;52.414;13.334;2022-07-23T01:15:22;7.72;;;3.20;;
72299;SDS011;60234;52.414;13.334;2022-07-23T01:17:48;7.05;;;3.10;;
72299;SDS011;60234;52.414;13.334;2022-07-23T01:20:14;11.03;;;3.20;;
72299;SDS011;60234;52.414;13.334;2022-07-23T01:22:39;6.80;;;3.30;;
72299;SDS011;60234;52.414;13.334;2022-07-23T01:25:04;6.90;;;2.70;;
72299;SDS011;60234;52.414;13.334;2022-07-23T01:27:30;5.77;;;2.43;;
72299;SDS011;60234;52.414;13.334;2022-07-23T01:29:56;6.82;;;3.10;;
72299;SDS011;60234;52.414;13.334;2022-07-23T01:32:22;9.93;;;3.20;;
72299;SDS011;60234;52.414;13.334;2022-07-23T01:34:47;7.30;;;3.08;;
72299;SDS011;60234;52.414;13.334;2022-07-23T01:37:13;6.50;;;2.63;;
72299;SDS011;60234;52.414;13.334;2022-07-23T01:39:38;6.17;;;2.63;;
72299;SDS011;60234;52.414;13.334;2022-07-23T01:42:04;6.75;;;2.90;;
72299;SDS011;60234;52.414;13.334;2022-07-23T01:44:29;7.33;;;3.40;;
72299;SDS011;60234;52.414;13.334;2022-07-23T01:46:55;8.00;;;3.30;;
72299;SDS011;60234;52.414;13.334;2022-07-23T01:49:21;7.70;;;2.88;;
72299;SDS011;60234;52.414;13.334;2022-07-23T01:51:46;9.77;;;3.30;;
72299;SDS011;60234;52.414;13.334;2022-07-23T01:54:27;6.53;;;3.15;;
72299;SDS011;60234;52.414;13.334;2022-07-23T01:56:53;7.80;;;3.05;;
72299;SDS011;60234;52.414;13.334;2022-07-23T01:59:18;6.30;;;2.77;;
72299;SDS011;60234;52.414;13.334;2022-07-23T02:01:44;6.23;;;3.00;;
72299;SDS011;60234;52.414;13.334;2022-07-23T02:04:09;6.57;;;3.10;;
72299;SDS011;60234;52.414;13.334;2022-07-23T02:06:34;7.07;;;3.03;;
72299;SDS011;60234;52.414;13.334;2022-07-23T02:09:00;6.47;;;3.05;;
72299;SDS011;60234;52.414;13.334;2022-07-23T02:11:25;7.93;;;2.97;;
72299;SDS011;60234;52.414;13.334;2022-07-23T02:13:51;7.87;;;3.30;;
72299;SDS011;60234;52.414;13.334;2022-07-23T02:16:16;6.50;;;3.13;;
72299;SDS011;60234;52.414;13.334;2022-07-23T02:18:41;7.70;;;3.37;;
72299;SDS011;60234;52.414;13.334;2022-07-23T02:21:06;7.27;;;2.53;;
72299;SDS011;60234;52.414;13.334;2022-07-23T02:23:32;8.82;;;3.17;;
72299;SDS011;60234;52.414;13.334;2022-07-23T02:25:57;6.77;;;3.13;;
72299;SDS011;60234;52.414;13.334;2022-07-23T02:28:22;7.03;;;2.90;;
72299;SDS011;60234;52.414;13.334;2022-07-23T02:30:48;9.23;;;3.70;;
72299;SDS011;60234;52.414;13.334;2022-07-23T02:33:13;9.13;;;3.60;;
72299;SDS011;60234;52.414;13.334;2022-07-23T02:35:38;6.73;;;3.07;;
72299;SDS011;60234;52.414;13.334;2022-07-23T02:38:04;7.17;;;3.20;;
72299;SDS011;60234;52.414;13.334;2022-07-23T02:40:29;6.87;;;3.10;;
72299;SDS011;60234;52.414;13.334;2022-07-23T02:42:54;6.57;;;3.15;;
72299;SDS011;60234;52.414;13.334;2022-07-23T02:45:20;6.30;;;2.67;;
72299;SDS011;60234;52.414;13.334;2022-07-23T02:47:45;7.50;;;3.17;;
72299;SDS011;60234;52.414;13.334;2022-07-23T02:50:10;6.97;;;3.03;;
72299;SDS011;60234;52.414;13.334;2022-07-23T02:52:37;8.82;;;3.05;;
72299;SDS011;60234;52.414;13.334;2022-07-23T02:55:03;7.17;;;3.30;;
72299;SDS011;60234;52.414;13.334;2022-07-23T02:57:28;8.20;;;3.30;;
72299;SDS011;60234;52.414;13.334;2022-07-23T02:59:54;7.30;;;3.40;;
72299;SDS011;60234;52.414;13.334;2022-07-23T03:02:19;7.30;;;2.90;;
72299;SDS011;60234;52.414;13.334;2022-07-23T03:04:45;8.10;;;3.33;;
72299;SDS011;60234;52.414;13.334;2022-07-23T03:07:10;7.70;;;3.07;;
72299;SDS011;60234;52.414;13.334;2022-07-23T03:09:35;9.93;;;2.80;;
72299;SDS011;60234;52.414;13.334;2022-07-23T03:12:01;8.00;;;3.25;;
72299;SDS011;60234;52.414;13.334;2022-07-23T03:14:26;8.47;;;3.00;;
72299;SDS011;60234;52.414;13.334;2022-07-23T03:16:52;8.90;;;3.22;;
72299;SDS011;60234;52.414;13.334;2022-07-23T03:19:19;6.90;;;3.07;;
72299;SDS011;60234;52.414;13.334;2022-07-23T03:21:44;6.78;;;3.05;;
72299;SDS011;60234;52.414;13.334;2022-07-23T03:24:10;7.20;;;3.17;;
72299;SDS011;60234;52.414;13.334;2022-07-23T03:26:35;8.07;;;3.40;;
72299;SDS011;60234;52.414;13.334;2022-07-23T03:29:01;7.18;;;2.95;;
72299;SDS011;60234;52.414;13.334;2022-07-23T03:31:28;6.65;;;3.17;;
72299;SDS011;60234;52.414;13.334;2022-07-23T03:33:55;6.57;;;3.20;;
72299;SDS011;60234;52.414;13.334;2022-07-23T03:36:20;6.70;;;3.05;;
72299;SDS011;60234;52.414;13.334;2022-07-23T03:38:45;6.60;;;3.30;;
72299;SDS011;60234;52.414;13.334;2022-07-23T03:41:11;6.33;;;3.13;;
72299;SDS011;60234;52.414;13.334;2022-07-23T03:43:36;6.90;;;3.10;;
72299;SDS011;60234;52.414;13.334;2022-07-23T03:46:02;7.97;;;3.00;;
72299;SDS011;60234;52.414;13.334;2022-07-23T03:48:27;8.00;;;2.83;;
72299;SDS011;60234;52.414;13.334;2022-07-23T03:50:52;6.78;;;3.05;;
72299;SDS011;60234;52.414;13.334;2022-07-23T03:53:18;6.43;;;2.67;;
72299;SDS011;60234;52.414;13.334;2022-07-23T03:55:43;9.77;;;3.00;;
72299;SDS011;60234;52.414;13.334;2022-07-23T03:58:08;9.53;;;2.90;;
72299;SDS011;60234;52.414;13.334;2022-07-23T04:00:34;6.07;;;2.47;;
72299;SDS011;60234;52.414;13.334;2022-07-23T04:02:59;6.40;;;2.53;;
72299;SDS011;60234;52.414;13.334;2022-07-23T04:05:25;5.13;;;2.10;;
72299;SDS011;60234;52.414;13.334;2022-07-23T04:07:50;7.70;;;2.40;;
72299;SDS011;60234;52.414;13.334;2022-07-23T04:10:15;8.03;;;2.53;;
72299;SDS011;60234;52.414;13.334;2022-07-23T04:12:41;5.47;;;2.20;;
72299;SDS011;60234;52.414;13.334;2022-07-23T04:15:07;5.65;;;1.85;;
72299;SDS011;60234;52.414;13.334;2022-07-23T04:17:33;6.60;;;2.27;;
72299;SDS011;60234;52.414;13.334;2022-07-23T04:19:58;5.43;;;2.05;;
72299;SDS011;60234;52.414;13.334;2022-07-23T04:22:23;7.10;;;2.20;;
72299;SDS011;60234;52.414;13.334;2022-07-23T04:24:49;6.87;;;1.73;;
72299;SDS011;60234;52.414;13.334;2022-07-23T04:27:15;4.88;;;1.58;;
72299;SDS011;60234;52.414;13.334;2022-07-23T04:29:40;6.33;;;1.80;;
72299;SDS011;60234;52.414;13.334;2022-07-23T04:32:06;4.53;;;1.60;;
72299;SDS011;60234;52.414;13.334;2022-07-23T04:34:31;3.80;;;1.50;;
72299;SDS011;60234;52.414;13.334;2022-07-23T04:36:56;7.32;;;2.10;;
72299;SDS011;60234;52.414;13.334;2022-07-23T04:39:22;3.50;;;1.30;;
72299;SDS011;60234;52.414;13.334;2022-07-23T04:41:47;5.80;;;1.70;;
72299;SDS011;60234;52.414;13.334;2022-07-23T04:44:13;4.73;;;1.73;;
72299;SDS011;60234;52.414;13.334;2022-07-23T04:46:38;4.27;;;1.60;;
72299;SDS011;60234;52.414;13.334;2022-07-23T04:49:04;5.40;;;1.55;;
72299;SDS011;60234;52.414;13.334;2022-07-23T04:51:29;4.43;;;1.57;;
72299;SDS011;60234;52.414;13.334;2022-07-23T04:53:55;6.07;;;2.00;;
72299;SDS011;60234;52.414;13.334;2022-07-23T04:56:20;3.37;;;1.50;;
72299;SDS011;60234;52.414;13.334;2022-07-23T04:58:46;5.10;;;1.50;;
72299;SDS011;60234;52.414;13.334;2022-07-23T05:01:11;6.17;;;2.10;;
72299;SDS011;60234;52.414;13.334;2022-07-23T05:03:37;5.57;;;2.10;;
72299;SDS011;60234;52.414;13.334;2022-07-23T05:06:02;4.97;;;1.93;;
72299;SDS011;60234;52.414;13.334;2022-07-23T05:08:28;7.53;;;2.00;;
72299;SDS011;60234;52.414;13.334;2022-07-23T05:10:53;4.18;;;1.60;;
72299;SDS011;60234;52.414;13.334;2022-07-23T05:13:19;5.70;;;1.70;;
72299;SDS011;60234;52.414;13.334;2022-07-23T05:15:44;3.63;;;1.50;;
72299;SDS011;60234;52.414;13.334;2022-07-23T05:18:11;4.90;;;1.80;;
72299;SDS011;60234;52.414;13.334;2022-07-23T05:20:36;6.30;;;1.93;;
72299;SDS011;60234;52.414;13.334;2022-07-23T05:23:02;5.13;;;1.80;;
72299;SDS011;60234;52.414;13.334;2022-07-23T05:25:28;5.57;;;1.70;;
72299;SDS011;60234;52.414;13.334;2022-07-23T05:27:53;6.40;;;1.80;;
72299;SDS011;60234;52.414;13.334;2022-07-23T05:30:18;8.07;;;1.80;;
72299;SDS011;60234;52.414;13.334;2022-07-23T05:32:44;5.30;;;1.67;;
72299;SDS011;60234;52.414;13.334;2022-07-23T05:35:09;5.43;;;1.73;;
72299;SDS011;60234;52.414;13.334;2022-07-23T05:37:35;5.38;;;1.48;;
72299;SDS011;60234;52.414;13.334;2022-07-23T05:40:04;5.23;;;1.70;;
72299;SDS011;60234;52.414;13.334;2022-07-23T05:42:33;5.10;;;1.67;;
72299;SDS011;60234;52.414;13.334;2022-07-23T05:45:02;6.18;;;1.77;;
72299;SDS011;60234;52.414;13.334;2022-07-23T05:47:28;4.33;;;1.80;;
72299;SDS011;60234;52.414;13.334;2022-07-23T05:50:03;4.28;;;1.83;;
72299;SDS011;60234;52.414;13.334;2022-07-23T05:52:28;4.70;;;1.80;;
72299;SDS011;60234;52.414;13.334;2022-07-23T05:54:54;6.10;;;1.83;;
72299;SDS011;60234;52.414;13.334;2022-07-23T05:57:19;4.90;;;1.63;;
72299;SDS011;60234;52.414;13.334;2022-07-23T05:59:44;5.30;;;1.50;;
72299;SDS011;60234;52.414;13.334;2022-07-23T06:02:10;6.13;;;1.63;;
72299;SDS011;60234;52.414;13.334;2022-07-23T06:04:35;4.53;;;1.87;;
72299;SDS011;60234;52.414;13.334;2022-07-23T06:07:00;5.17;;;1.77;;
72299;SDS011;60234;52.414;13.334;2022-07-23T06:09:26;6.45;;;2.00;;
72299;SDS011;60234;52.414;13.334;2022-07-23T06:11:51;4.73;;;1.73;;
72299;SDS011;60234;52.414;13.334;2022-07-23T06:14:16;4.83;;;1.70;;
72299;SDS011;60234;52.414;13.334;2022-07-23T06:16:42;14.67;;;1.63;;
72299;SDS011;60234;52.414;13.334;2022-07-23T06:19:07;3.83;;;1.50;;
72299;SDS011;60234;52.414;13.334;2022-07-23T06:21:33;10.07;;;2.47;;
72299;SDS011;60234;52.414;13.334;2022-07-23T06:23:58;6.57;;;1.80;;
72299;SDS011;60234;52.414;13.334;2022-07-23T06:26:23;5.88;;;2.15;;
72299;SDS011;60234;52.414;13.334;2022-07-23T06:28:49;4.00;;;1.83;;
72299;SDS011;60234;52.414;13.334;2022-07-23T06:31:14;6.30;;;2.07;;
72299;SDS011;60234;52.414;13.334;2022-07-23T06:33:39;5.30;;;2.10;;
72299;SDS011;60234;52.414;13.334;2022-07-23T06:36:05;7.33;;;2.10;;
72299;SDS011;60234;52.414;13.334;2022-07-23T06:38:30;5.63;;;1.83;;
72299;SDS011;60234;52.414;13.334;2022-07-23T06:40:55;5.07;;;1.90;;
72299;SDS011;60234;52.414;13.334;2022-07-23T06:43:21;4.63;;;1.87;;
72299;SDS011;60234;52.414;13.334;2022-07-23T06:45:46;6.53;;;2.10;;
72299;SDS011;60234;52.414;13.334;2022-07-23T06:48:12;5.63;;;1.87;;
72299;SDS011;60234;52.414;13.334;2022-07-23T06:50:37;6.18;;;1.80;;
72299;SDS011;60234;52.414;13.334;2022-07-23T06:53:02;7.17;;;2.10;;
72299;SDS011;60234;52.414;13.334;2022-07-23T06:55:28;6.17;;;2.03;;
72299;SDS011;60234;52.414;13.334;2022-07-23T06:57:53;7.90;;;2.23;;
72299;SDS011;60234;52.414;13.334;2022-07-23T07:00:18;6.77;;;2.43;;
72299;SDS011;60234;52.414;13.334;2022-07-23T07:02:44;5.63;;;1.83;;
72299;SDS011;60234;52.414;13.334;2022-07-23T07:05:09;7.70;;;2.20;;
72299;SDS011;60234;52.414;13.334;2022-07-23T07:07:35;5.87;;;2.20;;
72299;SDS011;60234;52.414;13.334;2022-07-23T07:10:00;5.30;;;1.93;;
72299;SDS011;60234;52.414;13.334;2022-07-23T07:12:27;5.22;;;2.30;;
72299;SDS011;60234;52.414;13.334;2022-07-23T07:14:52;8.27;;;2.67;;
72299;SDS011;60234;52.414;13.334;2022-07-23T07:17:18;6.30;;;2.58;;
72299;SDS011;60234;52.414;13.334;2022-07-23T07:19:43;7.93;;;2.73;;
72299;SDS011;60234;52.414;13.334;2022-07-23T07:22:09;5.83;;;2.57;;
72299;SDS011;60234;52.414;13.334;2022-07-23T07:24:34;8.30;;;2.43;;
72299;SDS011;60234;52.414;13.334;2022-07-23T07:27:00;7.70;;;2.60;;
72299;SDS011;60234;52.414;13.334;2022-07-23T07:29:25;6.33;;;2.40;;
72299;SDS011;60234;52.414;13.334;2022-07-23T07:31:50;7.63;;;2.67;;
72299;SDS011;60234;52.414;13.334;2022-07-23T07:34:16;6.50;;;2.50;;
72299;SDS011;60234;52.414;13.334;2022-07-23T07:36:41;6.07;;;2.20;;
72299;SDS011;60234;52.414;13.334;2022-07-23T07:39:08;5.90;;;2.63;;
72299;SDS011;60234;52.414;13.334;2022-07-23T07:41:35;7.82;;;2.25;;
72299;SDS011;60234;52.414;13.334;2022-07-23T07:44:01;4.90;;;2.00;;
72299;SDS011;60234;52.414;13.334;2022-07-23T07:46:26;6.38;;;2.22;;
72299;SDS011;60234;52.414;13.334;2022-07-23T07:48:52;7.63;;;2.53;;
72299;SDS011;60234;52.414;13.334;2022-07-23T07:51:18;6.22;;;2.35;;
72299;SDS011;60234;52.414;13.334;2022-07-23T07:53:43;6.50;;;2.50;;
72299;SDS011;60234;52.414;13.334;2022-07-23T07:56:09;7.90;;;2.73;;
72299;SDS011;60234;52.414;13.334;2022-07-23T07:58:34;5.57;;;2.42;;
72299;SDS011;60234;52.414;13.334;2022-07-23T08:00:59;7.00;;;2.70;;
72299;SDS011;60234;52.414;13.334;2022-07-23T08:03:25;7.83;;;2.70;;
72299;SDS011;60234;52.414;13.334;2022-07-23T08:05:51;6.90;;;2.97;;
72299;SDS011;60234;52.414;13.334;2022-07-23T08:08:16;11.80;;;3.27;;
72299;SDS011;60234;52.414;13.334;2022-07-23T08:10:42;7.32;;;2.80;;
72299;SDS011;60234;52.414;13.334;2022-07-23T08:13:11;7.00;;;2.90;;
72299;SDS011;60234;52.414;13.334;2022-07-23T08:15:38;9.73;;;3.15;;
72299;SDS011;60234;52.414;13.334;2022-07-23T08:18:04;7.17;;;2.97;;
72299;SDS011;60234;52.414;13.334;2022-07-23T08:20:29;8.15;;;2.63;;
72299;SDS011;60234;52.414;13.334;2022-07-23T08:22:58;8.00;;;2.80;;
72299;SDS011;60234;52.414;13.334;2022-07-23T08:25:26;6.68;;;2.72;;
72299;SDS011;60234;52.414;13.334;2022-07-23T08:27:53;9.53;;;3.47;;
72299;SDS011;60234;52.414;13.334;2022-07-23T08:30:19;6.82;;;3.20;;
72299;SDS011;60234;52.414;13.334;2022-07-23T08:32:48;6.13;;;2.50;;
72299;SDS011;60234;52.414;13.334;2022-07-23T08:35:21;8.90;;;3.03;;
72299;SDS011;60234;52.414;13.334;2022-07-23T08:37:58;9.93;;;3.93;;
72299;SDS011;60234;52.414;13.334;2022-07-23T08:40:28;8.82;;;3.03;;
72299;SDS011;60234;52.414;13.334;2022-07-23T08:42:55;11.48;;;3.22;;
72299;SDS011;60234;52.414;13.334;2022-07-23T08:45:21;8.90;;;2.90;;
72299;SDS011;60234;52.414;13.334;2022-07-23T08:47:49;7.20;;;3.20;;
72299;SDS011;60234;52.414;13.334;2022-07-23T08:50:15;8.88;;;3.47;;
72299;SDS011;60234;52.414;13.334;2022-07-23T08:52:40;8.43;;;3.20;;
72299;SDS011;60234;52.414;13.334;2022-07-23T08:55:07;7.43;;;3.22;;
72299;SDS011;60234;52.414;13.334;2022-07-23T08:57:33;7.72;;;3.17;;
72299;SDS011;60234;52.414;13.334;2022-07-23T08:59:59;8.57;;;3.27;;
72299;SDS011;60234;52.414;13.334;2022-07-23T09:02:24;8.93;;;3.13;;
72299;SDS011;60234;52.414;13.334;2022-07-23T09:04:49;8.67;;;2.97;;
72299;SDS011;60234;52.414;13.334;2022-07-23T09:07:15;5.63;;;2.50;;
72299;SDS011;60234;52.414;13.334;2022-07-23T09:09:40;6.90;;;2.67;;
72299;SDS011;60234;52.414;13.334;2022-07-23T09:12:06;8.77;;;2.63;;
72299;SDS011;60234;52.414;13.334;2022-07-23T09:17:12;9.50;;;2.90;;
72299;SDS011;60234;52.414;13.334;2022-07-23T09:19:39;7.77;;;2.50;;
72299;SDS011;60234;52.414;13.334;2022-07-23T09:22:24;6.78;;;2.70;;
72299;SDS011;60234;52.414;13.334;2022-07-23T09:25:13;6.25;;;2.88;;
72299;SDS011;60234;52.414;13.334;2022-07-23T09:30:27;6.70;;;2.53;;
72299;SDS011;60234;52.414;13.334;2022-07-23T09:35:46;5.38;;;2.40;;
72299;SDS011;60234;52.414;13.334;2022-07-23T09:38:12;6.88;;;2.47;;
72299;SDS011;60234;52.414;13.334;2022-07-23T09:40:37;5.68;;;2.47;;
72299;SDS011;60234;52.414;13.334;2022-07-23T09:43:03;9.20;;;3.13;;
72299;SDS011;60234;52.414;13.334;2022-07-23T09:45:28;5.63;;;2.30;;
72299;SDS011;60234;52.414;13.334;2022-07-23T09:48:09;6.07;;;2.60;;
72299;SDS011;60234;52.414;13.334;2022-07-23T09:50:42;6.90;;;2.53;;
72299;SDS011;60234;52.414;13.334;2022-07-23T09:53:08;5.93;;;2.58;;
72299;SDS011;60234;52.414;13.334;2022-07-23T09:55:35;5.68;;;2.72;;
72299;SDS011;60234;52.414;13.334;2022-07-23T09:58:02;6.07;;;2.58;;
72299;SDS011;60234;52.414;13.334;2022-07-23T10:00:28;5.93;;;2.90;;
72299;SDS011;60234;52.414;13.334;2022-07-23T10:02:58;7.32;;;2.75;;
72299;SDS011;60234;52.414;13.334;2022-07-23T10:05:24;5.95;;;2.40;;
72299;SDS011;60234;52.414;13.334;2022-07-23T10:07:51;6.13;;;2.83;;
72299;SDS011;60234;52.414;13.334;2022-07-23T10:10:17;7.53;;;2.50;;
72299;SDS011;60234;52.414;13.334;2022-07-23T10:12:43;7.75;;;2.63;;
72299;SDS011;60234;52.414;13.334;2022-07-23T10:15:15;6.80;;;2.60;;
72299;SDS011;60234;52.414;13.334;2022-07-23T10:17:41;5.70;;;2.27;;
72299;SDS011;60234;52.414;13.334;2022-07-23T10:20:06;5.60;;;2.20;;
72299;SDS011;60234;52.414;13.334;2022-07-23T10:22:37;6.73;;;2.10;;
72299;SDS011;60234;52.414;13.334;2022-07-23T10:28:06;5.20;;;1.80;;
72299;SDS011;60234;52.414;13.334;2022-07-23T10:31:09;5.82;;;2.17;;
72299;SDS011;60234;52.414;13.334;2022-07-23T10:34:02;5.10;;;2.00;;
72299;SDS011;60234;52.414;13.334;2022-07-23T10:36:44;5.77;;;2.00;;
72299;SDS011;60234;52.414;13.334;2022-07-23T10:39:17;5.80;;;2.00;;
72299;SDS011;60234;52.414;13.334;2022-07-23T10:41:47;5.28;;;2.13;;
72299;SDS011;60234;52.414;13.334;2022-07-23T10:44:14;8.87;;;2.20;;
72299;SDS011;60234;52.414;13.334;2022-07-23T10:46:53;6.60;;;2.57;;
72299;SDS011;60234;52.414;13.334;2022-07-23T10:49:40;4.82;;;1.90;;
72299;SDS011;60234;52.414;13.334;2022-07-23T10:52:22;5.50;;;2.00;;
72299;SDS011;60234;52.414;13.334;2022-07-23T10:54:50;5.20;;;2.00;;
72299;SDS011;60234;52.414;13.334;2022-07-23T10:57:24;6.00;;;2.20;;
72299;SDS011;60234;52.414;13.334;2022-07-23T11:02:29;6.32;;;2.25;;
72299;SDS011;60234;52.414;13.334;2022-07-23T11:04:58;5.80;;;2.00;;
72299;SDS011;60234;52.414;13.334;2022-07-23T11:07:26;5.35;;;2.47;;
72299;SDS011;60234;52.414;13.334;2022-07-23T11:09:51;5.57;;;2.10;;
72299;SDS011;60234;52.414;13.334;2022-07-23T11:17:29;4.73;;;2.27;;
72299;SDS011;60234;52.414;13.334;2022-07-23T11:22:52;5.50;;;2.03;;
72299;SDS011;60234;52.414;13.334;2022-07-23T11:27:48;7.07;;;2.33;;
72299;SDS011;60234;52.414;13.334;2022-07-23T11:35:30;4.20;;;1.87;;
72299;SDS011;60234;52.414;13.334;2022-07-23T11:38:06;7.07;;;2.25;;
72299;SDS011;60234;52.414;13.334;2022-07-23T11:40:40;5.00;;;2.10;;
72299;SDS011;60234;52.414;13.334;2022-07-23T11:43:07;5.05;;;1.83;;
72299;SDS011;60234;52.414;13.334;2022-07-23T11:48:00;5.30;;;2.07;;
72299;SDS011;60234;52.414;13.334;2022-07-23T11:50:26;9.38;;;2.30;;
72299;SDS011;60234;52.414;13.334;2022-07-23T11:52:52;5.90;;;2.27;;
72299;SDS011;60234;52.414;13.334;2022-07-23T11:55:19;5.72;;;1.90;;
72299;SDS011;60234;52.414;13.334;2022-07-23T11:57:44;5.70;;;2.50;;
72299;SDS011;60234;52.414;13.334;2022-07-23T12:00:11;7.40;;;2.30;;
72299;SDS011;60234;52.414;13.334;2022-07-23T12:02:43;4.78;;;2.00;;
72299;SDS011;60234;52.414;13.334;2022-07-23T12:05:14;4.68;;;2.10;;
72299;SDS011;60234;52.414;13.334;2022-07-23T12:07:48;6.10;;;2.20;;
72299;SDS011;60234;52.414;13.334;2022-07-23T12:10:57;4.93;;;2.15;;
72299;SDS011;60234;52.414;13.334;2022-07-23T12:13:13;4.40;;;1.90;;
72299;SDS011;60234;52.414;13.334;2022-07-23T12:15:44;7.03;;;2.10;;
72299;SDS011;60234;52.414;13.334;2022-07-23T12:18:11;4.68;;;2.10;;
72299;SDS011;60234;52.414;13.334;2022-07-23T12:20:40;5.55;;;2.40;;
72299;SDS011;60234;52.414;13.334;2022-07-23T12:23:08;5.47;;;2.13;;
72299;SDS011;60234;52.414;13.334;2022-07-23T12:25:36;5.10;;;2.40;;
72299;SDS011;60234;52.414;13.334;2022-07-23T12:28:09;5.25;;;2.28;;
72299;SDS011;60234;52.414;13.334;2022-07-23T12:33:03;6.18;;;2.20;;
72299;SDS011;60234;52.414;13.334;2022-07-23T12:35:32;5.05;;;2.25;;
72299;SDS011;60234;52.414;13.334;2022-07-23T12:38:00;5.23;;;2.23;;
72299;SDS011;60234;52.414;13.334;2022-07-23T12:40:29;5.55;;;2.40;;
72299;SDS011;60234;52.414;13.334;2022-07-23T12:42:56;4.35;;;2.10;;
72299;SDS011;60234;52.414;13.334;2022-07-23T12:45:23;5.60;;;2.08;;
72299;SDS011;60234;52.414;13.334;2022-07-23T12:47:57;5.47;;;2.35;;
72299;SDS011;60234;52.414;13.334;2022-07-23T12:53:11;6.28;;;2.40;;
72299;SDS011;60234;52.414;13.334;2022-07-23T12:55:47;5.15;;;2.10;;
72299;SDS011;60234;52.414;13.334;2022-07-23T12:58:15;5.03;;;2.30;;
72299;SDS011;60234;52.414;13.334;2022-07-23T13:05:50;5.78;;;2.60;;
72299;SDS011;60234;52.414;13.334;2022-07-23T13:08:15;4.80;;;2.20;;
72299;SDS011;60234;52.414;13.334;2022-07-23T13:10:41;8.60;;;2.58;;
72299;SDS011;60234;52.414;13.334;2022-07-23T13:13:09;5.60;;;2.20;;
72299;SDS011;60234;52.414;13.334;2022-07-23T13:15:35;5.65;;;2.53;;
72299;SDS011;60234;52.414;13.334;2022-07-23T13:18:01;5.10;;;2.30;;
72299;SDS011;60234;52.414;13.334;2022-07-23T13:20:26;6.17;;;2.20;;
72299;SDS011;60234;52.414;13.334;2022-07-23T13:22:51;4.50;;;2.07;;
72299;SDS011;60234;52.414;13.334;2022-07-23T13:25:17;5.72;;;1.98;;
72299;SDS011;60234;52.414;13.334;2022-07-23T13:27:42;4.90;;;2.30;;
72299;SDS011;60234;52.414;13.334;2022-07-23T13:30:08;5.87;;;2.10;;
72299;SDS011;60234;52.414;13.334;2022-07-23T13:32:35;6.05;;;2.10;;
72299;SDS011;60234;52.414;13.334;2022-07-23T13:35:01;5.87;;;2.20;;
72299;SDS011;60234;52.414;13.334;2022-07-23T13:37:27;5.80;;;2.25;;
72299;SDS011;60234;52.414;13.334;2022-07-23T13:39:52;5.33;;;2.20;;
72299;SDS011;60234;52.414;13.334;2022-07-23T13:42:18;5.60;;;2.07;;
72299;SDS011;60234;52.414;13.334;2022-07-23T13:44:43;6.43;;;2.00;;
72299;SDS011;60234;52.414;13.334;2022-07-23T13:47:08;4.23;;;2.00;;
72299;SDS011;60234;52.414;13.334;2022-07-23T13:49:34;5.00;;;2.20;;
72299;SDS011;60234;52.414;13.334;2022-07-23T13:51:59;3.57;;;1.60;;
72299;SDS011;60234;52.414;13.334;2022-07-23T13:54:24;4.37;;;1.73;;
72299;SDS011;60234;52.414;13.334;2022-07-23T13:56:50;5.30;;;1.93;;
72299;SDS011;60234;52.414;13.334;2022-07-23T13:59:16;4.53;;;1.90;;
72299;SDS011;60234;52.414;13.334;2022-07-23T14:01:42;3.90;;;1.65;;
72299;SDS011;60234;52.414;13.334;2022-07-23T14:04:09;3.50;;;1.60;;
72299;SDS011;60234;52.414;13.334;2022-07-23T14:06:34;3.47;;;1.58;;
72299;SDS011;60234;52.414;13.334;2022-07-23T14:09:00;3.90;;;1.73;;
72299;SDS011;60234;52.414;13.334;2022-07-23T14:11:25;4.67;;;1.50;;
72299;SDS011;60234;52.414;13.334;2022-07-23T14:13:51;4.35;;;1.60;;
72299;SDS011;60234;52.414;13.334;2022-07-23T14:16:16;6.13;;;1.63;;
72299;SDS011;60234;52.414;13.334;2022-07-23T14:18:42;5.30;;;1.63;;
72299;SDS011;60234;52.414;13.334;2022-07-23T14:21:07;5.40;;;1.70;;
72299;SDS011;60234;52.414;13.334;2022-07-23T14:23:32;4.05;;;1.70;;
72299;SDS011;60234;52.414;13.334;2022-07-23T14:25:58;4.33;;;1.90;;
72299;SDS011;60234;52.414;13.334;2022-07-23T14:28:24;5.20;;;1.77;;
72299;SDS011;60234;52.414;13.334;2022-07-23T14:30:49;3.40;;;1.50;;
72299;SDS011;60234;52.414;13.334;2022-07-23T14:33:15;3.77;;;1.50;;
72299;SDS011;60234;52.414;13.334;2022-07-23T14:35:41;4.45;;;1.65;;
72299;SDS011;60234;52.414;13.334;2022-07-23T14:38:07;3.80;;;1.50;;
72299;SDS011;60234;52.414;13.334;2022-07-23T14:40:32;3.53;;;1.30;;
72299;SDS011;60234;52.414;13.334;2022-07-23T14:42:58;5.30;;;1.50;;
72299;SDS011;60234;52.414;13.334;2022-07-23T14:45:23;3.25;;;1.50;;
72299;SDS011;60234;52.414;13.334;2022-07-23T14:47:49;4.13;;;1.60;;
72299;SDS011;60234;52.414;13.334;2022-07-23T14:50:14;3.83;;;1.48;;
72299;SDS011;60234;52.414;13.334;2022-07-23T14:52:40;3.40;;;1.33;;
72299;SDS011;60234;52.414;13.334;2022-07-23T14:55:05;6.63;;;1.40;;
72299;SDS011;60234;52.414;13.334;2022-07-23T14:57:31;3.45;;;1.65;;
72299;SDS011;60234;52.414;13.334;2022-07-23T14:59:57;5.17;;;1.40;;
72299;SDS011;60234;52.414;13.334;2022-07-23T15:02:22;3.47;;;1.30;;
72299;SDS011;60234;52.414;13.334;2022-07-23T15:04:47;3.80;;;1.50;;
72299;SDS011;60234;52.414;13.334;2022-07-23T15:07:13;3.75;;;1.35;;
72299;SDS011;60234;52.414;13.334;2022-07-23T15:09:38;3.27;;;1.30;;
72299;SDS011;60234;52.414;13.334;2022-07-23T15:12:03;2.70;;;1.37;;